Cabo Engano, Dominican Republic

4:10 PM AST on December 26, 2014 (GMT -0400)
Barrio Mejico, San Pedro de Macoris | Change Station
CLOSE
Current Station
Personal Weather Station
Location: San Pedro De Macoris, SAN PEDRO DE MACORIS
Elevation: 30 ft
Nearby Weather Stations

Elev 30 ft 18.47 °N, 69.32 °W | Updated 14 seconds ago

Mostly Cloudy
Mostly Cloudy
84.9 °F
Feels Like 90 °F
N
9.2
Wind Variable Wind from East
Gusts 12.3 mph

Today
High -- | Low -- °F
--% Chance of Precip.
Yesterday
High -- | Low -- °F
Precip. -- in
7:07 AM 6:08 PM
Waxing Crescent, 28% visible
Pressure 29.98 in
Visibility 6.2 miles
Clouds Mostly Cloudy 2200 ft
Heat Index 90 °F
Dew Point 70 °F
Humidity 62%
Rainfall 0.00 in
Snow Depth Not available.
UV 2 out of 12
Pollen Not available.
Air Quality Not available.
Flu Activity Not available.
METAR MDLR 262000Z 04012KT 9999 BKN022 29/21 Q1015 NOSIG

More Conditions Fewer Conditions

Pressure 29.98 in
Visibility 6.2 miles
Clouds Mostly Cloudy 2200 ft
Heat Index 90 °F
Dew Point 70 °F
Humidity 62%
Rainfall 0.00 in
Snow Depth Not available.
UV 2 out of 12
Pollen Not available.
Air Quality Not available.
Flu Activity Not available.
METAR MDLR 262000Z 04012KT 9999 BKN022 29/21 Q1015 NOSIG

More Conditions Fewer Conditions

10-Day Weather Forecast

Almanac

Astronomy

Dec. 26, 2014 Rise Set
Actual Time
Civil Twilight
Nautical Twilight
Astronomical Twilight
Moon
Length of Visible Light
Length of Day
Tomorrow will be .
, % of the Moon is Illuminated

Today's Extremes

Country Highs Country Lows

Community

WunderPhotos

Upload Photos

1,780,681 photos uploaded!

WunderBlogs® & News

Nearby

Air Quality

  Air Quality AQ Index Pollutant
Not available.

Snow Depth

Station Depth Elevation

Earthquake Activity

City Distance Mag. Time & Date
Minimum magnitude displayed is 2.5.

Coastal Water Temperatures

Place Temperature

Nearby Weather Stations